Time,TemperatureF,DewpointF,PressureIn,WindDirection,WindDirectionDegrees,WindSpeedMPH,WindSpeedGustMPH,Humidity,HourlyPrecipIn,Conditions,Clouds,dailyrainin,SoftwareType,DateUTC
2013-01-31 00:02:00,21.0,8.0,-100.00,NW,315,14.0,19.0,56,-99.99,,,-99.99,,2013-01-31 00:02:00,
2013-01-31 00:11:00,21.0,7.0,-100.00,NW,305,17.0,23.0,55,-99.99,,,-99.99,,2013-01-31 00:11:00,
2013-01-31 00:21:00,21.0,7.0,-100.00,NW,310,17.0,19.0,55,-99.99,,,-99.99,,2013-01-31 00:21:00,
2013-01-31 00:32:00,21.0,7.0,-100.00,NW,320,14.0,17.0,56,-99.99,,,-99.99,,2013-01-31 00:32:00,
2013-01-31 00:42:00,21.0,7.0,-100.00,NW,320,14.0,17.0,56,-99.99,,,-99.99,,2013-01-31 00:42:00,
2013-01-31 00:52:00,21.0,8.0,-100.00,NW,315,9.0,10.0,58,-99.99,,,-99.99,,2013-01-31 00:52:00,
2013-01-31 01:02:00,21.0,8.0,-100.00,NW,315,9.0,10.0,58,-99.99,,,-99.99,,2013-01-31 01:02:00,
2013-01-31 01:12:00,21.0,9.0,-100.00,NW,305,11.0,13.0,59,-99.99,,,-99.99,,2013-01-31 01:12:00,
2013-01-31 01:21:00,21.0,9.0,-100.00,NW,315,14.0,18.0,59,-99.99,,,-99.99,,2013-01-31 01:21:00,
2013-01-31 01:31:00,21.0,9.0,-100.00,WNW,290,15.0,19.0,59,-99.99,,,-99.99,,2013-01-31 01:31:00,
2013-01-31 01:41:00,21.0,9.0,-100.00,WNW,290,15.0,19.0,59,-99.99,,,-99.99,,2013-01-31 01:41:00,
2013-01-31 01:52:00,21.0,8.0,-100.00,NW,305,20.0,22.0,58,-99.99,,,-99.99,,2013-01-31 01:52:00,
2013-01-31 02:01:00,21.0,8.0,-100.00,NW,305,20.0,22.0,58,-99.99,,,-99.99,,2013-01-31 02:01:00,
2013-01-31 02:11:00,21.0,9.0,-100.00,NW,305,14.0,17.0,59,-99.99,,,-99.99,,2013-01-31 02:11:00,
2013-01-31 02:21:00,21.0,9.0,-100.00,WNW,295,17.0,24.0,59,-99.99,,,-99.99,,2013-01-31 02:21:00,
2013-01-31 02:32:00,21.0,9.0,-100.00,WNW,295,17.0,24.0,59,-99.99,,,-99.99,,2013-01-31 02:32:00,
2013-01-31 02:41:00,21.0,9.0,-100.00,WNW,295,17.0,24.0,59,-99.99,,,-99.99,,2013-01-31 02:41:00,
2013-01-31 02:52:00,21.0,9.0,-100.00,WNW,295,17.0,24.0,59,-99.99,,,-99.99,,2013-01-31 02:52:00,
2013-01-31 03:03:00,20.0,8.0,-100.00,WNW,300,15.0,17.0,59,-99.99,,,-99.99,,2013-01-31 03:03:00,
2013-01-31 03:11:00,20.0,8.0,-100.00,NW,310,20.0,24.0,59,-99.99,,,-99.99,,2013-01-31 03:11:00,
2013-01-31 03:21:00,20.0,8.0,-100.00,NW,305,17.0,22.0,60,-99.99,,,-99.99,,2013-01-31 03:21:00,
2013-01-31 03:32:00,19.0,8.0,-100.00,WNW,295,17.0,26.0,61,-99.99,,,-99.99,,2013-01-31 03:32:00,
2013-01-31 03:41:00,19.0,8.0,-100.00,WNW,295,17.0,26.0,61,-99.99,,,-99.99,,2013-01-31 03:41:00,
2013-01-31 03:51:00,19.0,7.0,-100.00,WNW,295,21.0,27.0,61,-99.99,,,-99.99,,2013-01-31 03:51:00,
2013-01-31 04:02:00,19.0,7.0,-100.00,WNW,295,21.0,27.0,61,-99.99,,,-99.99,,2013-01-31 04:02:00,
2013-01-31 04:11:00,18.0,8.0,-100.00,WNW,295,16.0,21.0,63,-99.99,,,-99.99,,2013-01-31 04:11:00,
2013-01-31 04:22:00,18.0,7.0,-100.00,NW,305,16.0,19.0,62,-99.99,,,-99.99,,2013-01-31 04:22:00,
2013-01-31 04:31:00,17.0,7.0,-100.00,NW,305,12.0,16.0,64,-99.99,,,-99.99,,2013-01-31 04:31:00,
2013-01-31 04:41:00,17.0,7.0,-100.00,NW,305,12.0,16.0,64,-99.99,,,-99.99,,2013-01-31 04:41:00,
2013-01-31 04:51:00,16.0,4.0,-100.00,NW,310,17.0,20.0,61,-99.99,,,-99.99,,2013-01-31 04:51:00,
2013-01-31 05:03:00,16.0,4.0,-100.00,NW,310,17.0,20.0,61,-99.99,,,-99.99,,2013-01-31 05:03:00,
2013-01-31 05:11:00,15.0,4.0,-100.00,NW,305,11.0,16.0,61,-99.99,,,-99.99,,2013-01-31 05:11:00,
2013-01-31 05:22:00,15.0,4.0,-100.00,NW,310,14.0,19.0,61,-99.99,,,-99.99,,2013-01-31 05:22:00,
2013-01-31 05:32:00,15.0,4.0,-100.00,NW,310,14.0,19.0,61,-99.99,,,-99.99,,2013-01-31 05:32:00,
2013-01-31 05:41:00,14.0,4.0,-100.00,WNW,300,11.0,16.0,64,-99.99,,,-99.99,,2013-01-31 05:41:00,
2013-01-31 05:51:00,14.0,4.0,-100.00,WNW,300,11.0,16.0,64,-99.99,,,-99.99,,2013-01-31 05:51:00,
2013-01-31 06:01:00,14.0,4.0,-100.00,WNW,300,11.0,16.0,64,-99.99,,,-99.99,,2013-01-31 06:01:00,
2013-01-31 06:10:00,14.0,4.0,-100.00,WNW,300,11.0,16.0,64,-99.99,,,-99.99,,2013-01-31 06:10:00,
2013-01-31 14:02:00,4.0,-9.0,-100.00,NW,310,14.0,16.0,55,-99.99,,,-99.99,,2013-01-31 14:02:00,
2013-01-31 14:11:00,4.0,-9.0,-100.00,NW,310,22.0,29.0,55,-99.99,,,-99.99,,2013-01-31 14:11:00,
2013-01-31 14:22:00,4.0,-9.0,-100.00,NW,315,19.0,24.0,55,-99.99,,,-99.99,,2013-01-31 14:22:00,
2013-01-31 14:32:00,4.0,-9.0,-100.00,NW,305,17.0,19.0,55,-99.99,,,-99.99,,2013-01-31 14:32:00,
2013-01-31 14:42:00,4.0,-9.0,-100.00,NW,305,17.0,19.0,55,-99.99,,,-99.99,,2013-01-31 14:42:00,
2013-01-31 14:52:00,4.0,-8.0,-100.00,NW,310,21.0,24.0,55,-99.99,,,-99.99,,2013-01-31 14:52:00,
2013-01-31 15:03:00,4.0,-8.0,-100.00,NW,310,21.0,24.0,55,-99.99,,,-99.99,,2013-01-31 15:03:00,
2013-01-31 15:12:00,4.0,-8.0,-100.00,NW,310,26.0,30.0,55,-99.99,,,-99.99,,2013-01-31 15:12:00,
2013-01-31 15:22:00,5.0,-8.0,-100.00,NW,310,22.0,26.0,55,-99.99,,,-99.99,,2013-01-31 15:22:00,
2013-01-31 15:32:00,6.0,-7.0,-100.00,NW,310,14.0,16.0,55,-99.99,,,-99.99,,2013-01-31 15:32:00,
2013-01-31 15:42:00,6.0,-7.0,-100.00,NW,310,14.0,16.0,55,-99.99,,,-99.99,,2013-01-31 15:42:00,
2013-01-31 15:51:00,6.0,-8.0,-100.00,NW,315,21.0,25.0,54,-99.99,,,-99.99,,2013-01-31 15:51:00,
2013-01-31 16:03:00,6.0,-8.0,-100.00,NW,315,21.0,25.0,54,-99.99,,,-99.99,,2013-01-31 16:03:00,
2013-01-31 16:12:00,6.0,-7.0,-100.00,NNW,330,21.0,30.0,54,-99.99,,,-99.99,,2013-01-31 16:12:00,
2013-01-31 16:21:00,7.0,-7.0,-100.00,NW,325,16.0,18.0,53,-99.99,,,-99.99,,2013-01-31 16:21:00,
2013-01-31 16:33:00,7.0,-7.0,-100.00,NW,325,16.0,18.0,53,-99.99,,,-99.99,,2013-01-31 16:33:00,
2013-01-31 16:42:00,6.0,-7.0,-100.00,WNW,300,17.0,19.0,55,-99.99,,,-99.99,,2013-01-31 16:42:00,
2013-01-31 16:51:00,6.0,-7.0,-100.00,NW,320,22.0,27.0,55,-99.99,,,-99.99,,2013-01-31 16:51:00,
2013-01-31 17:02:00,6.0,-7.0,-100.00,NW,320,22.0,27.0,55,-99.99,,,-99.99,,2013-01-31 17:02:00,
2013-01-31 17:12:00,6.0,-7.0,-100.00,NW,305,19.0,23.0,54,-99.99,,,-99.99,,2013-01-31 17:12:00,
2013-01-31 17:23:00,6.0,-7.0,-100.00,NW,305,14.0,17.0,55,-99.99,,,-99.99,,2013-01-31 17:23:00,
2013-01-31 17:32:00,6.0,-8.0,-100.00,WNW,300,19.0,23.0,54,-99.99,,,-99.99,,2013-01-31 17:32:00,
2013-01-31 17:43:00,6.0,-8.0,-100.00,WNW,300,19.0,23.0,54,-99.99,,,-99.99,,2013-01-31 17:43:00,
2013-01-31 17:53:00,6.0,-7.0,-100.00,NW,305,22.0,27.0,55,-99.99,,,-99.99,,2013-01-31 17:53:00,
2013-01-31 18:02:00,6.0,-7.0,-100.00,NW,305,22.0,27.0,55,-99.99,,,-99.99,,2013-01-31 18:02:00,
2013-01-31 18:12:00,6.0,-6.0,-100.00,WNW,295,19.0,25.0,57,-99.99,,,-99.99,,2013-01-31 18:12:00,
2013-01-31 18:22:00,7.0,-6.0,-100.00,NW,315,17.0,19.0,56,-99.99,,,-99.99,,2013-01-31 18:22:00,
2013-01-31 18:32:00,6.0,-6.0,-100.00,NW,305,20.0,27.0,57,-99.99,,,-99.99,,2013-01-31 18:32:00,
2013-01-31 18:43:00,6.0,-6.0,-100.00,NW,305,20.0,27.0,57,-99.99,,,-99.99,,2013-01-31 18:43:00,
2013-01-31 18:52:00,6.0,-6.0,-100.00,NW,305,23.0,29.0,57,-99.99,,,-99.99,,2013-01-31 18:52:00,
2013-01-31 19:02:00,6.0,-6.0,-100.00,NW,305,23.0,29.0,57,-99.99,,,-99.99,,2013-01-31 19:02:00,
2013-01-31 19:12:00,6.0,-7.0,-100.00,WNW,300,26.0,32.0,55,-99.99,,,-99.99,,2013-01-31 19:12:00,
2013-01-31 19:21:00,6.0,-7.0,-100.00,WNW,300,26.0,32.0,55,-99.99,,,-99.99,,2013-01-31 19:21:00,
2013-01-31 19:32:00,6.0,-6.0,-100.00,WNW,295,20.0,23.0,56,-99.99,,,-99.99,,2013-01-31 19:32:00,
2013-01-31 19:42:00,6.0,-6.0,-100.00,WNW,295,20.0,23.0,56,-99.99,,,-99.99,,2013-01-31 19:42:00,
2013-01-31 19:51:00,6.0,-7.0,-100.00,NW,310,30.0,37.0,55,-99.99,,,-99.99,,2013-01-31 19:51:00,
2013-01-31 20:02:00,6.0,-7.0,-100.00,NW,310,30.0,37.0,55,-99.99,,,-99.99,,2013-01-31 20:02:00,
2013-01-31 20:11:00,7.0,-6.0,-100.00,WNW,295,19.0,23.0,56,-99.99,,,-99.99,,2013-01-31 20:11:00,
2013-01-31 20:21:00,6.0,-6.0,-100.00,WNW,285,22.0,30.0,57,-99.99,,,-99.99,,2013-01-31 20:21:00,
2013-01-31 20:31:00,6.0,-7.0,-100.00,WNW,295,22.0,26.0,55,-99.99,,,-99.99,,2013-01-31 20:31:00,
2013-01-31 20:42:00,6.0,-7.0,-100.00,WNW,295,22.0,26.0,55,-99.99,,,-99.99,,2013-01-31 20:42:00,
2013-01-31 20:52:00,6.0,-6.0,-100.00,NW,310,29.0,35.0,57,-99.99,,,-99.99,,2013-01-31 20:52:00,
2013-01-31 21:02:00,6.0,-6.0,-100.00,NW,310,29.0,35.0,57,-99.99,,,-99.99,,2013-01-31 21:02:00,
2013-01-31 21:12:00,6.0,-6.0,-100.00,NW,310,22.0,27.0,55,-99.99,,,-99.99,,2013-01-31 21:12:00,
2013-01-31 21:21:00,5.0,-8.0,-100.00,WNW,300,29.0,37.0,53,-99.99,,,-99.99,,2013-01-31 21:21:00,
2013-01-31 21:32:00,5.0,-9.0,-100.00,NW,305,26.0,29.0,52,-99.99,,,-99.99,,2013-01-31 21:32:00,
2013-01-31 21:52:00,5.0,-8.0,-100.00,NW,310,26.0,29.0,54,-99.99,,,-99.99,,2013-01-31 21:52:00,
2013-01-31 22:02:00,5.0,-8.0,-100.00,NW,310,26.0,29.0,54,-99.99,,,-99.99,,2013-01-31 22:02:00,
2013-01-31 22:11:00,5.0,-8.0,-100.00,NW,310,17.0,22.0,54,-99.99,,,-99.99,,2013-01-31 22:11:00,
2013-01-31 22:22:00,5.0,-8.0,-100.00,NW,320,27.0,30.0,54,-99.99,,,-99.99,,2013-01-31 22:22:00,
2013-01-31 22:32:00,5.0,-9.0,-100.00,WNW,290,29.0,35.0,53,-99.99,,,-99.99,,2013-01-31 22:32:00,
2013-01-31 22:42:00,5.0,-9.0,-100.00,WNW,290,29.0,35.0,53,-99.99,,,-99.99,,2013-01-31 22:42:00,
2013-01-31 22:51:00,4.0,-9.0,-100.00,WNW,295,20.0,24.0,52,-99.99,,,-99.99,,2013-01-31 22:51:00,
2013-01-31 23:02:00,4.0,-9.0,-100.00,WNW,295,20.0,24.0,52,-99.99,,,-99.99,,2013-01-31 23:02:00,
2013-01-31 23:12:00,5.0,-9.0,-100.00,NW,320,16.0,19.0,53,-99.99,,,-99.99,,2013-01-31 23:12:00,
2013-01-31 23:21:00,5.0,-9.0,-100.00,NW,320,22.0,28.0,53,-99.99,,,-99.99,,2013-01-31 23:21:00,
2013-01-31 23:32:00,5.0,-9.0,-100.00,NW,305,23.0,27.0,53,-99.99,,,-99.99,,2013-01-31 23:32:00,
2013-01-31 23:42:00,4.0,-9.0,-100.00,WNW,300,14.0,17.0,53,-99.99,,,-99.99,,2013-01-31 23:42:00,
2013-01-31 23:52:00,4.0,-10.0,-100.00,NW,310,17.0,19.0,52,-99.99,,,-99.99,,2013-01-31 23:52:00,